createdAt,value
2019-05-30T00:01:30.982Z,1.80
2019-05-30T00:04:04.905Z,1.80
2019-05-30T00:06:36.037Z,1.60
2019-05-30T00:09:11.658Z,1.60
2019-05-30T00:11:44.091Z,1.70
2019-05-30T00:14:14.844Z,1.80
2019-05-30T00:16:46.925Z,1.40
2019-05-30T00:19:26.817Z,1.80
2019-05-30T00:22:00.808Z,1.50
2019-05-30T00:24:33.087Z,1.70
2019-05-30T00:27:08.495Z,1.63
2019-05-30T00:29:40.040Z,1.70
2019-05-30T00:32:15.426Z,1.87
2019-05-30T00:34:47.802Z,1.63
2019-05-30T00:37:21.455Z,1.60
2019-05-30T00:39:55.694Z,1.50
2019-05-30T00:42:33.895Z,1.70
2019-05-30T00:45:18.068Z,1.60
2019-05-30T00:47:41.362Z,1.53
2019-05-30T00:50:14.016Z,1.80
2019-05-30T00:52:45.215Z,1.40
2019-05-30T00:55:17.541Z,1.60
2019-05-30T00:57:48.678Z,1.77
2019-05-30T01:00:21.670Z,1.57
2019-05-30T01:02:52.785Z,1.50
2019-05-30T01:05:27.128Z,1.57
2019-05-30T01:07:57.326Z,1.50
2019-05-30T01:10:34.447Z,1.40
2019-05-30T01:13:07.242Z,1.57
2019-05-30T01:15:40.578Z,1.40
2019-05-30T01:18:12.875Z,1.57
2019-05-30T01:20:44.431Z,1.50
2019-05-30T01:23:19.097Z,1.50
2019-05-30T01:25:48.334Z,1.43
2019-05-30T01:28:21.860Z,1.30
2019-05-30T01:31:01.592Z,1.50
2019-05-30T01:33:30.810Z,1.40
2019-05-30T01:36:03.831Z,1.20
2019-05-30T01:38:36.468Z,1.37
2019-05-30T01:41:08.082Z,1.40
2019-05-30T01:43:40.595Z,1.40
2019-05-30T01:46:11.003Z,1.30
2019-05-30T01:48:41.999Z,1.50
2019-05-30T01:51:12.380Z,1.50
2019-05-30T01:53:43.020Z,1.60
2019-05-30T01:56:13.438Z,1.60
2019-05-30T01:58:44.385Z,1.30
2019-05-30T02:01:24.339Z,1.33
2019-05-30T02:03:47.288Z,1.20
2019-05-30T02:06:17.623Z,1.37
2019-05-30T02:08:50.506Z,1.70
2019-05-30T02:11:22.437Z,1.63
2019-05-30T02:14:01.556Z,1.70
2019-05-30T02:16:32.331Z,1.40
2019-05-30T02:19:07.929Z,1.50
2019-05-30T02:21:38.657Z,1.40
2019-05-30T02:24:12.078Z,1.63
2019-05-30T02:26:42.738Z,1.40
2019-05-30T02:29:13.474Z,1.60
2019-05-30T02:31:44.998Z,1.60
2019-05-30T02:34:16.227Z,1.57
2019-05-30T02:36:49.510Z,1.60
2019-05-30T02:39:22.430Z,1.50
2019-05-30T02:41:53.486Z,1.40
2019-05-30T02:44:24.939Z,1.60
2019-05-30T02:47:01.430Z,1.40
2019-05-30T02:49:34.932Z,1.60
2019-05-30T02:52:06.916Z,1.57
2019-05-30T02:54:41.282Z,1.50
2019-05-30T02:57:12.525Z,1.50
2019-05-30T02:59:48.780Z,1.40
2019-05-30T03:02:19.904Z,1.60
2019-05-30T03:04:52.756Z,1.60
2019-05-30T03:07:24.278Z,1.70
2019-05-30T03:09:57.538Z,1.60
2019-05-30T03:12:28.408Z,1.50
2019-05-30T03:15:02.547Z,1.70
2019-05-30T03:17:34.126Z,1.60
2019-05-30T03:20:18.829Z,1.60
2019-05-30T03:22:43.128Z,1.70
2019-05-30T03:25:16.175Z,1.70
2019-05-30T03:27:47.273Z,1.73
2019-05-30T03:30:27.545Z,1.60
2019-05-30T03:33:07.631Z,1.70
2019-05-30T03:35:35.452Z,1.53
2019-05-30T03:38:03.286Z,1.43
2019-05-30T03:40:34.134Z,1.63
2019-05-30T03:43:06.044Z,1.80
2019-05-30T03:45:38.284Z,1.70
2019-05-30T03:48:14.291Z,1.67
2019-05-30T03:50:51.853Z,1.60
2019-05-30T03:53:24.530Z,1.77
2019-05-30T03:56:01.199Z,1.67
2019-05-30T03:58:59.739Z,1.60
2019-05-30T04:01:38.151Z,1.53
2019-05-30T04:04:16.727Z,1.70
2019-05-30T04:06:52.447Z,1.63
2019-05-30T04:09:26.810Z,1.90
2019-05-30T04:12:38.618Z,1.63
2019-05-30T04:15:18.795Z,1.60
2019-05-30T04:17:50.125Z,1.80
2019-05-30T04:20:23.007Z,1.60
2019-05-30T04:22:56.112Z,1.63
2019-05-30T04:25:26.971Z,1.30
2019-05-30T04:27:58.275Z,1.67
2019-05-30T04:30:28.951Z,1.60
2019-05-30T04:33:16.073Z,1.40
2019-05-30T04:35:32.159Z,1.40
2019-05-30T04:38:05.927Z,1.43
2019-05-30T04:40:36.604Z,1.40
2019-05-30T04:43:09.118Z,1.50
2019-05-30T04:45:41.570Z,1.53
2019-05-30T04:48:18.474Z,1.50
2019-05-30T04:50:53.858Z,1.57
2019-05-30T04:53:24.917Z,1.53
2019-05-30T04:55:56.050Z,1.50
2019-05-30T04:58:26.460Z,1.40
2019-05-30T05:01:01.173Z,1.70
2019-05-30T05:03:45.313Z,1.40
2019-05-30T05:06:04.020Z,1.50
2019-05-30T05:08:37.460Z,1.67
2019-05-30T05:11:12.279Z,1.33
2019-05-30T05:13:42.139Z,1.33
2019-05-30T05:16:31.007Z,1.50
2019-05-30T05:18:51.168Z,1.30
2019-05-30T05:21:22.887Z,1.57
2019-05-30T05:23:53.985Z,1.57
2019-05-30T05:26:25.150Z,1.67
2019-05-30T05:28:58.118Z,1.40
2019-05-30T05:31:33.929Z,1.70
2019-05-30T05:34:07.786Z,1.50
2019-05-30T05:36:41.054Z,1.53
2019-05-30T05:39:16.042Z,1.73
2019-05-30T05:41:47.355Z,1.37
2019-05-30T05:44:18.363Z,1.40
2019-05-30T05:46:49.025Z,1.40
2019-05-30T05:49:27.266Z,1.60
2019-05-30T05:51:58.726Z,1.70
2019-05-30T05:54:35.547Z,1.77
2019-05-30T05:57:09.809Z,1.50
2019-05-30T05:59:44.338Z,1.30
2019-05-30T06:02:16.178Z,1.33
2019-05-30T06:04:52.619Z,1.50
2019-05-30T06:07:26.752Z,1.30
2019-05-30T06:09:58.275Z,1.30
2019-05-30T06:12:30.565Z,1.50
2019-05-30T06:15:02.820Z,1.47
2019-05-30T06:17:38.273Z,1.40
2019-05-30T06:20:09.006Z,1.33
2019-05-30T06:22:54.862Z,1.50
2019-05-30T06:25:30.379Z,1.50
2019-05-30T06:28:00.303Z,1.50
2019-05-30T06:30:30.781Z,1.70
2019-05-30T06:33:01.841Z,1.50
2019-05-30T06:35:36.548Z,1.30
2019-05-30T06:38:11.747Z,1.40
2019-05-30T06:40:45.083Z,1.33
2019-05-30T06:43:15.509Z,1.30
2019-05-30T06:45:48.386Z,1.50
2019-05-30T06:48:20.730Z,1.50
2019-05-30T06:50:53.546Z,1.20
2019-05-30T06:53:25.731Z,1.40
2019-05-30T06:55:56.348Z,1.40
2019-05-30T06:58:45.827Z,1.23
2019-05-30T07:01:05.082Z,1.20
2019-05-30T07:03:38.270Z,1.30
2019-05-30T07:06:16.831Z,1.20
2019-05-30T07:08:50.227Z,1.30
2019-05-30T07:11:24.663Z,1.40
2019-05-30T07:13:58.540Z,1.30
2019-05-30T07:16:31.489Z,1.20
2019-05-30T07:19:02.057Z,1.40
2019-05-30T07:21:34.132Z,1.20
2019-05-30T07:24:07.022Z,1.30
2019-05-30T07:26:39.081Z,1.20
2019-05-30T07:29:09.707Z,1.20
2019-05-30T07:31:40.318Z,1.27
2019-05-30T07:34:37.490Z,1.33
2019-05-30T07:37:10.769Z,1.10
2019-05-30T07:39:43.192Z,1.10
2019-05-30T07:42:15.246Z,1.10
2019-05-30T07:44:48.303Z,1.33
2019-05-30T07:47:22.881Z,1.10
2019-05-30T07:49:55.425Z,1.17
2019-05-30T07:52:32.862Z,1.20
2019-05-30T07:55:06.906Z,1.10
2019-05-30T07:57:39.757Z,1.43
2019-05-30T08:00:13.266Z,1.20
2019-05-30T08:02:43.510Z,1.27
2019-05-30T08:05:24.052Z,1.10
2019-05-30T08:07:47.332Z,1.30
2019-05-30T08:10:21.693Z,1.30
2019-05-30T08:12:55.211Z,1.13
2019-05-30T08:15:31.290Z,1.30
2019-05-30T08:18:05.949Z,1.10
2019-05-30T08:20:39.831Z,1.03
2019-05-30T08:23:10.692Z,1.13
2019-05-30T08:25:43.367Z,1.30
2019-05-30T08:28:14.518Z,1.23
2019-05-30T08:30:47.830Z,1.20
2019-05-30T08:33:22.013Z,1.43
2019-05-30T08:35:51.810Z,1.10
2019-05-30T08:38:29.547Z,1.20
2019-05-30T08:41:03.719Z,1.10
2019-05-30T08:43:41.334Z,1.13
2019-05-30T08:46:14.630Z,1.20
2019-05-30T08:48:45.466Z,1.00
2019-05-30T08:51:18.597Z,1.17
2019-05-30T08:53:50.827Z,1.10
2019-05-30T08:56:28.577Z,1.20
2019-05-30T08:58:59.876Z,1.00
2019-05-30T09:01:30.816Z,1.10
2019-05-30T09:04:01.428Z,1.20
2019-05-30T09:06:31.894Z,1.20
2019-05-30T09:09:02.937Z,1.20
2019-05-30T09:11:37.370Z,1.10
2019-05-30T09:14:08.810Z,1.20
2019-05-30T09:16:39.723Z,1.20
2019-05-30T09:19:10.894Z,1.00
2019-05-30T09:21:43.140Z,1.10
2019-05-30T09:24:14.384Z,1.00
2019-05-30T09:26:48.328Z,1.00
2019-05-30T09:29:16.975Z,1.10
2019-05-30T09:31:48.717Z,1.10
2019-05-30T09:34:19.575Z,1.10
2019-05-30T09:36:50.415Z,1.10
2019-05-30T09:39:21.555Z,1.07
2019-05-30T09:41:59.537Z,1.03
2019-05-30T09:44:33.366Z,1.10
2019-05-30T09:47:06.570Z,1.13
2019-05-30T09:49:40.176Z,1.00
2019-05-30T09:52:11.831Z,1.00
2019-05-30T09:54:43.067Z,1.13
2019-05-30T09:57:14.994Z,1.10
2019-05-30T09:59:46.643Z,1.13
2019-05-30T10:02:17.631Z,1.10
2019-05-30T10:04:50.354Z,1.00
2019-05-30T10:07:24.359Z,1.10
2019-05-30T10:09:58.274Z,1.03
2019-05-30T10:12:28.850Z,1.00
2019-05-30T10:14:59.177Z,1.10
2019-05-30T10:17:35.737Z,1.10
2019-05-30T10:20:06.395Z,1.03
2019-05-30T10:22:38.656Z,1.07
2019-05-30T10:25:10.671Z,1.10
2019-05-30T10:27:41.370Z,1.10
2019-05-30T10:30:13.543Z,1.10
2019-05-30T10:32:45.421Z,1.10
2019-05-30T10:35:19.079Z,1.07
2019-05-30T10:37:52.802Z,1.10
2019-05-30T10:40:26.782Z,1.10
2019-05-30T10:42:57.927Z,1.20
2019-05-30T10:45:32.509Z,1.07
2019-05-30T10:48:05.186Z,1.10
2019-05-30T10:50:39.407Z,1.27
2019-05-30T10:53:13.254Z,1.03
2019-05-30T10:55:47.065Z,1.00
2019-05-30T10:58:21.295Z,1.10
2019-05-30T11:00:55.659Z,1.20
2019-05-30T11:03:30.423Z,1.07
2019-05-30T11:06:27.542Z,1.20
2019-05-30T11:09:04.971Z,0.90
2019-05-30T11:11:42.259Z,1.27
2019-05-30T11:14:13.402Z,1.10
2019-05-30T11:16:44.847Z,0.90
2019-05-30T11:19:15.996Z,1.20
2019-05-30T11:21:49.778Z,0.90
2019-05-30T11:24:23.976Z,1.20
2019-05-30T11:26:57.197Z,0.90
2019-05-30T11:29:28.586Z,0.93
2019-05-30T11:32:07.673Z,1.37
2019-05-30T11:34:38.518Z,1.10
2019-05-30T11:37:18.655Z,1.10
2019-05-30T11:39:41.964Z,1.20
2019-05-30T11:42:13.122Z,1.10
2019-05-30T11:44:49.686Z,1.20
2019-05-30T11:47:25.605Z,1.20
2019-05-30T11:49:57.744Z,1.10
2019-05-30T11:52:30.190Z,1.20
2019-05-30T11:55:01.196Z,1.23
2019-05-30T11:57:31.580Z,1.27
2019-05-30T12:00:02.638Z,1.10
2019-05-30T12:02:33.250Z,1.07
2019-05-30T12:05:10.065Z,1.07
2019-05-30T12:07:40.458Z,1.20
2019-05-30T12:10:11.870Z,1.10
2019-05-30T12:12:44.326Z,1.10
2019-05-30T12:15:15.064Z,1.00
2019-05-30T12:17:45.326Z,0.90
2019-05-30T12:20:18.010Z,1.27
2019-05-30T12:22:48.203Z,1.30
2019-05-30T12:25:19.625Z,1.20
2019-05-30T12:27:53.869Z,1.03
2019-05-30T12:30:29.597Z,1.10
2019-05-30T12:33:00.446Z,1.10
2019-05-30T12:35:31.829Z,1.03
2019-05-30T12:38:05.077Z,1.20
2019-05-30T12:40:38.989Z,1.10
2019-05-30T12:43:09.690Z,1.10
2019-05-30T12:45:42.188Z,0.97
2019-05-30T12:48:16.232Z,1.00
2019-05-30T12:50:55.543Z,1.20
2019-05-30T12:53:29.979Z,1.40
2019-05-30T12:56:02.768Z,1.00
2019-05-30T12:58:34.327Z,1.07
2019-05-30T13:01:05.331Z,1.13
2019-05-30T13:03:35.611Z,1.30
2019-05-30T13:06:07.571Z,1.30
2019-05-30T13:08:37.963Z,1.30
2019-05-30T13:11:08.938Z,1.50
2019-05-30T13:13:39.321Z,1.50
2019-05-30T13:16:10.351Z,1.50
2019-05-30T13:18:40.742Z,1.50
2019-05-30T13:21:11.416Z,1.70
2019-05-30T13:23:41.722Z,1.70
2019-05-30T13:26:17.996Z,2.03
2019-05-30T13:28:55.960Z,1.57
2019-05-30T13:31:30.420Z,1.40
2019-05-30T13:34:03.385Z,1.43
2019-05-30T13:36:34.248Z,1.50
2019-05-30T13:39:10.009Z,1.70
2019-05-30T13:41:40.845Z,1.60
2019-05-30T13:44:12.198Z,1.20
2019-05-30T13:46:43.118Z,1.67
2019-05-30T13:49:15.021Z,1.70
2019-05-30T13:51:46.021Z,1.30
2019-05-30T13:54:16.333Z,1.50
2019-05-30T13:56:46.767Z,1.60
2019-05-30T13:59:17.086Z,1.37
2019-05-30T14:01:53.486Z,1.50
2019-05-30T14:04:25.831Z,1.40
2019-05-30T14:07:02.283Z,1.20
2019-05-30T14:09:33.949Z,1.47
2019-05-30T14:12:08.727Z,1.40
2019-05-30T14:14:41.456Z,1.33
2019-05-30T14:17:13.729Z,1.40
2019-05-30T14:19:44.356Z,1.30
2019-05-30T14:22:15.450Z,1.33
2019-05-30T14:24:45.794Z,1.50
2019-05-30T14:27:16.778Z,1.27
2019-05-30T14:29:48.670Z,1.40
2019-05-30T14:32:19.988Z,1.30
2019-05-30T14:34:52.106Z,1.40
2019-05-30T14:37:27.131Z,1.13
2019-05-30T14:39:57.495Z,1.10
2019-05-30T14:42:29.483Z,1.20
2019-05-30T14:45:02.361Z,1.40
2019-05-30T14:47:39.750Z,1.37
2019-05-30T14:50:14.452Z,1.30
2019-05-30T14:52:45.133Z,1.40
2019-05-30T14:55:17.236Z,1.20
2019-05-30T14:57:48.143Z,1.30
2019-05-30T15:00:19.662Z,1.30
2019-05-30T15:02:50.298Z,1.30
2019-05-30T15:05:20.623Z,1.30
2019-05-30T15:07:51.365Z,1.20
2019-05-30T15:10:22.359Z,1.37
2019-05-30T15:12:53.030Z,1.10
2019-05-30T15:15:23.565Z,1.10
2019-05-30T15:17:54.729Z,1.43
2019-05-30T15:20:25.847Z,1.37
2019-05-30T15:22:57.307Z,1.30
2019-05-30T15:25:28.444Z,1.10
2019-05-30T15:27:59.648Z,1.20
2019-05-30T15:30:33.491Z,1.27
2019-05-30T15:33:06.217Z,1.30
2019-05-30T15:35:41.940Z,1.23
2019-05-30T15:38:13.391Z,1.40
2019-05-30T15:40:44.210Z,1.20
2019-05-30T15:43:15.962Z,1.20
2019-05-30T15:45:48.551Z,1.10
2019-05-30T15:48:21.960Z,1.20
2019-05-30T15:50:53.532Z,1.20
2019-05-30T15:53:25.522Z,1.43
2019-05-30T15:56:00.341Z,1.27
2019-05-30T15:58:31.400Z,1.03
2019-05-30T16:01:01.759Z,1.10
2019-05-30T16:03:33.264Z,1.13
2019-05-30T16:06:04.436Z,1.30
2019-05-30T16:08:41.456Z,1.20
2019-05-30T16:11:19.556Z,1.40
2019-05-30T16:13:54.195Z,1.27
2019-05-30T16:16:39.341Z,1.50
2019-05-30T16:19:17.346Z,1.53
2019-05-30T16:21:43.075Z,1.40
2019-05-30T16:24:16.450Z,1.17
2019-05-30T16:26:47.836Z,1.20
2019-05-30T16:29:21.877Z,1.30
2019-05-30T16:31:54.442Z,1.20
2019-05-30T16:34:27.950Z,1.40
2019-05-30T16:37:01.489Z,1.07
2019-05-30T16:39:36.735Z,1.13
2019-05-30T16:42:07.983Z,1.10
2019-05-30T16:44:40.761Z,1.30
2019-05-30T16:47:14.307Z,1.40
2019-05-30T16:49:48.686Z,1.30
2019-05-30T16:52:19.256Z,1.10
2019-05-30T16:54:51.599Z,1.40
2019-05-30T16:57:22.692Z,1.23
2019-05-30T16:59:58.977Z,1.20
2019-05-30T17:02:32.565Z,1.20
2019-05-30T17:05:05.519Z,1.20
2019-05-30T17:07:35.999Z,1.23
2019-05-30T17:10:21.430Z,1.40
2019-05-30T17:12:39.898Z,1.20
2019-05-30T17:15:11.707Z,1.20
2019-05-30T17:17:41.993Z,1.30
2019-05-30T17:20:13.769Z,1.50
2019-05-30T17:22:45.172Z,1.20
2019-05-30T17:25:17.182Z,1.20
2019-05-30T17:27:48.434Z,1.20
2019-05-30T17:30:23.688Z,1.60
2019-05-30T17:32:56.148Z,1.20
2019-05-30T17:35:26.801Z,1.40
2019-05-30T17:37:57.267Z,1.33
2019-05-30T17:40:44.316Z,1.30
2019-05-30T17:43:11.197Z,1.40
2019-05-30T17:45:43.441Z,1.17
2019-05-30T17:48:16.797Z,1.30
2019-05-30T17:50:53.432Z,1.13
2019-05-30T17:53:28.289Z,1.30
2019-05-30T17:56:01.029Z,1.40
2019-05-30T17:58:32.160Z,1.40
2019-05-30T18:01:04.506Z,1.33
2019-05-30T18:03:39.071Z,1.23
2019-05-30T18:06:14.038Z,1.30
2019-05-30T18:08:47.391Z,1.30
2019-05-30T18:11:25.534Z,1.30
2019-05-30T18:13:56.531Z,1.20
2019-05-30T18:16:31.470Z,1.40
2019-05-30T18:19:03.075Z,1.40
2019-05-30T18:21:37.957Z,1.30
2019-05-30T18:24:09.019Z,1.40
2019-05-30T18:26:39.859Z,1.37
2019-05-30T18:29:18.726Z,1.30
2019-05-30T18:31:50.097Z,1.40
2019-05-30T18:34:22.317Z,1.30
2019-05-30T18:36:55.626Z,1.30
2019-05-30T18:39:31.088Z,1.30
2019-05-30T18:42:03.355Z,1.60
2019-05-30T18:44:34.455Z,1.43
2019-05-30T18:47:05.434Z,1.40
2019-05-30T18:49:38.252Z,1.47
2019-05-30T18:52:10.186Z,1.40
2019-05-30T18:54:41.163Z,1.50
2019-05-30T18:57:12.637Z,1.30
2019-05-30T19:00:04.254Z,1.43
2019-05-30T19:02:35.659Z,1.30
2019-05-30T19:05:10.431Z,1.20
2019-05-30T19:07:45.913Z,1.40
2019-05-30T19:10:17.642Z,1.30
2019-05-30T19:12:52.308Z,1.40
2019-05-30T19:15:26.400Z,1.57
2019-05-30T19:17:58.363Z,1.30
2019-05-30T19:20:30.195Z,1.27
2019-05-30T19:23:02.084Z,1.30
2019-05-30T19:25:35.526Z,1.30
2019-05-30T19:28:06.176Z,1.30
2019-05-30T19:30:40.841Z,1.20
2019-05-30T19:33:13.402Z,1.30
2019-05-30T19:35:44.311Z,1.40
2019-05-30T19:38:16.740Z,1.40
2019-05-30T19:40:47.344Z,1.20
2019-05-30T19:43:19.111Z,1.40
2019-05-30T19:45:54.383Z,1.30
2019-05-30T19:48:25.184Z,1.40
2019-05-30T19:50:57.207Z,1.50
2019-05-30T19:53:31.322Z,1.40
2019-05-30T19:56:02.999Z,1.40
2019-05-30T19:58:39.906Z,1.33
2019-05-30T20:01:13.535Z,1.30
2019-05-30T20:03:47.199Z,1.40
2019-05-30T20:06:19.693Z,1.40
2019-05-30T20:08:55.653Z,1.30
2019-05-30T20:11:25.367Z,1.30
2019-05-30T20:13:59.526Z,1.40
2019-05-30T20:16:31.421Z,1.20
2019-05-30T20:19:07.063Z,1.20
2019-05-30T20:21:45.467Z,1.40
2019-05-30T20:24:21.608Z,1.37
2019-05-30T20:26:55.570Z,1.40
2019-05-30T20:29:26.865Z,1.30
2019-05-30T20:31:58.258Z,1.50
2019-05-30T20:34:32.429Z,1.40
2019-05-30T20:37:05.250Z,1.30
2019-05-30T20:39:36.804Z,1.40
2019-05-30T20:42:19.162Z,1.60
2019-05-30T20:44:47.537Z,1.37
2019-05-30T20:47:23.132Z,1.20
2019-05-30T20:49:54.866Z,1.40
2019-05-30T20:52:27.839Z,1.30
2019-05-30T20:55:00.808Z,1.30
2019-05-30T20:57:31.611Z,1.47
2019-05-30T21:00:02.426Z,1.40
2019-05-30T21:02:34.683Z,1.50
2019-05-30T21:05:07.165Z,1.60
2019-05-30T21:07:41.829Z,1.60
2019-05-30T21:10:14.707Z,1.30
2019-05-30T21:12:49.251Z,1.50
2019-05-30T21:15:20.968Z,1.53
2019-05-30T21:17:56.032Z,1.40
2019-05-30T21:20:28.702Z,1.50
2019-05-30T21:23:01.575Z,1.50
2019-05-30T21:25:35.826Z,1.43
2019-05-30T21:28:07.200Z,1.50
2019-05-30T21:30:38.890Z,1.30
2019-05-30T21:33:20.422Z,1.50
2019-05-30T21:35:55.112Z,1.60
2019-05-30T21:38:28.869Z,1.50
2019-05-30T21:41:02.738Z,1.60
2019-05-30T21:43:32.810Z,1.80
2019-05-30T21:46:07.454Z,1.70
2019-05-30T21:48:44.941Z,1.47
2019-05-30T21:51:16.602Z,1.80
2019-05-30T21:53:47.672Z,1.50
2019-05-30T21:56:18.581Z,1.50
2019-05-30T21:58:48.898Z,1.60
2019-05-30T22:01:35.819Z,1.60
2019-05-30T22:04:10.534Z,1.80
2019-05-30T22:06:42.707Z,1.60
2019-05-30T22:09:17.030Z,1.70
2019-05-30T22:11:48.316Z,1.50
2019-05-30T22:14:20.925Z,1.60
2019-05-30T22:16:52.317Z,1.73
2019-05-30T22:19:24.371Z,1.90
2019-05-30T22:21:55.842Z,1.60
2019-05-30T22:24:27.286Z,1.60
2019-05-30T22:27:05.306Z,1.60
2019-05-30T22:29:36.321Z,1.60
2019-05-30T22:32:10.230Z,1.70
2019-05-30T22:34:42.734Z,1.70
2019-05-30T22:37:13.747Z,1.80
2019-05-30T22:39:44.857Z,1.90
2019-05-30T22:42:24.359Z,1.70
2019-05-30T22:44:58.930Z,1.77
2019-05-30T22:47:30.122Z,1.90
2019-05-30T22:50:00.373Z,1.70
2019-05-30T22:52:31.988Z,1.87
2019-05-30T22:55:05.193Z,1.60
2019-05-30T22:57:38.862Z,1.67
2019-05-30T23:00:14.763Z,1.70
2019-05-30T23:02:49.883Z,1.70
2019-05-30T23:05:19.591Z,1.60
2019-05-30T23:07:51.463Z,1.50
2019-05-30T23:10:25.221Z,1.90
2019-05-30T23:12:56.169Z,1.80
2019-05-30T23:15:26.483Z,1.80
2019-05-30T23:18:00.918Z,1.63
2019-05-30T23:20:36.205Z,1.80
2019-05-30T23:23:18.567Z,1.73
2019-05-30T23:25:55.481Z,1.70
2019-05-30T23:28:29.999Z,1.60
2019-05-30T23:31:03.121Z,1.93
2019-05-30T23:33:35.734Z,1.93
2019-05-30T23:36:06.475Z,1.90
2019-05-30T23:38:38.270Z,2.00
2019-05-30T23:41:08.543Z,1.90
2019-05-30T23:43:54.995Z,1.97
2019-05-30T23:46:11.982Z,1.77
2019-05-30T23:48:45.575Z,1.90
2019-05-30T23:51:18.958Z,1.73
2019-05-30T23:53:50.148Z,1.70
2019-05-30T23:56:20.760Z,2.07
2019-05-30T23:58:52.522Z,1.90
